Hershey, Pennsylvania
Current Conditions -  °F | °C
As of 3:56 AM on Thursday 18 Dec 2014 (Local Time) from KMDT Reporting Station
Broken Clouds Broken Clouds  
Wind Chill: 23°   Ceiling: 4500
Heat Index: 35°   Visibility: 10mi
Dew Point: 16°   Wind: 25mph
Humidity: 46%   Direction: 310°NW
Pressure: 30.05"   Gusts: 31mph
Location:  40.29°N, 76.65°W
Report Text: KMDT 180856Z 31022G27KT 10SM BKN045 02/M09 A3005 RMK AO2 PK WND 32029/0837 SLP178 T00171089 50006
Loading
Personal Weather Stations






























Interactive Weather Map New forecast layout! Learn more

10-Day Weather Forecast

Advertisements
Track Severe Weather on mobile